Time;durP1;ratioP1;P1;durP2;ratioP2;P2;SDS_P1;SDS_P2;PMS_P1;PMS_P2;Temp;Humidity;BMP_temperature;BMP_pressure;BME280_temperature;BME280_humidity;BME280_pressure;Samples;Min_cycle;Max_cycle;Signal;HPM_P1;HPM_P2
2021/11/26 00:02:24;;;;;;;;;6.50;6.00;;;;;7.60;70.07;100870.50;4940649;28;46889;-50
2021/11/26 00:04:50;;;;;;;;;7.75;5.25;;;;;7.59;69.78;100871.41;4940944;28;45377;-53
2021/11/26 00:07:18;;;;;;;;;11.00;7.75;;;;;7.57;70.36;100874.06;4941798;28;45459;-50
2021/11/26 00:09:44;;;;;;;;;11.50;7.00;;;;;7.55;69.71;100868.91;4939058;28;45284;-51
2021/11/26 00:12:09;;;;;;;;;17.25;13.75;;;;;7.55;70.04;100858.41;4939851;28;45312;-51
2021/11/26 00:14:42;;;;;;;;;15.75;8.25;;;;;7.56;69.66;100854.03;4939293;28;45295;-53
2021/11/26 00:17:15;;;;;;;;;8.25;5.50;;;;;7.57;69.97;100851.34;4948723;28;45495;-51
2021/11/26 00:19:41;;;;;;;;;9.50;5.50;;;;;7.57;69.57;100850.47;4938256;28;45337;-49
2021/11/26 00:22:07;;;;;;;;;14.50;7.00;;;;;7.59;69.43;100850.44;4936382;28;45361;-50
2021/11/26 00:24:33;;;;;;;;;1.00;0.00;;;;;7.59;69.85;100851.28;4937821;28;46060;-52
2021/11/26 00:26:58;;;;;;;;;6.75;5.00;;;;;7.57;69.92;100848.72;4942272;28;45287;-51
2021/11/26 00:29:24;;;;;;;;;8.75;6.00;;;;;7.60;70.04;100857.38;4940005;28;45295;-53
2021/11/26 00:31:49;;;;;;;;;9.00;6.00;;;;;7.61;69.82;100857.31;4935991;28;45228;-51
2021/11/26 00:34:15;;;;;;;;;12.00;10.00;;;;;7.62;69.90;100847.66;4939515;28;45498;-53
2021/11/26 00:36:40;;;;;;;;;12.00;9.75;;;;;7.61;69.98;100846.81;4944256;28;45349;-54
2021/11/26 00:39:06;;;;;;;;;12.25;7.25;;;;;7.60;70.10;100841.66;4933563;28;45457;-53
2021/11/26 00:41:32;;;;;;;;;11.50;9.25;;;;;7.63;70.13;100841.50;4933208;28;45656;-53
2021/11/26 00:43:57;;;;;;;;;8.00;6.00;;;;;7.62;70.20;100843.28;4934722;28;46139;-53
2021/11/26 00:46:23;;;;;;;;;7.75;7.00;;;;;7.63;70.10;100833.63;4937545;28;45412;-51
2021/11/26 00:48:49;;;;;;;;;13.50;7.00;;;;;7.62;70.17;100835.41;4937141;28;45344;-54
2021/11/26 00:51:14;;;;;;;;;12.25;9.75;;;;;7.63;69.88;100828.38;4936717;28;45581;-54
2021/11/26 00:53:40;;;;;;;;;7.00;6.50;;;;;7.62;69.61;100829.31;4941937;28;45369;-50
2021/11/26 00:56:06;;;;;;;;;8.25;6.00;;;;;7.60;70.03;100818.91;4931632;28;45631;-52
2021/11/26 00:58:32;;;;;;;;;9.50;7.00;;;;;7.56;69.53;100817.31;4934338;28;45814;-55
2021/11/26 01:00:58;;;;;;;;;12.50;6.75;;;;;7.52;69.52;100821.88;4932162;28;45556;-54
2021/11/26 01:03:24;;;;;;;;;7.50;6.75;;;;;7.49;69.74;100824.63;4932804;28;46016;-52
2021/11/26 01:05:50;;;;;;;;;12.00;8.25;;;;;7.48;70.10;100829.94;4932684;28;45529;-54
2021/11/26 01:08:16;;;;;;;;;8.50;5.25;;;;;7.47;69.63;100815.97;4934262;28;45592;-51
2021/11/26 01:10:43;;;;;;;;;10.50;6.00;;;;;7.47;69.77;100815.13;4936761;28;45525;-53
2021/11/26 01:13:09;;;;;;;;;11.75;7.75;;;;;7.48;69.82;100816.81;4936266;28;46042;-49
2021/11/26 01:15:36;;;;;;;;;10.00;6.00;;;;;7.47;69.69;100821.22;4941601;28;45761;-51
2021/11/26 01:18:03;;;;;;;;;11.50;6.50;;;;;7.44;69.81;100810.88;4941190;28;45734;-52
2021/11/26 01:20:32;;;;;;;;;7.00;6.50;;;;;7.41;69.60;100811.00;4931613;28;45443;-54
2021/11/26 01:22:58;;;;;;;;;9.75;6.75;;;;;7.38;69.78;100807.69;4937653;28;46132;-55
2021/11/26 01:25:24;;;;;;;;;14.50;11.75;;;;;7.36;69.48;100799.91;4938291;28;45546;-53
2021/11/26 01:27:50;;;;;;;;;12.00;6.00;;;;;7.38;69.92;100797.19;4949811;28;45516;-53
2021/11/26 01:32:55;;;;;;;;;9.25;7.25;;;;;7.35;69.90;100800.81;4945220;28;45637;-48
2021/11/26 01:35:21;;;;;;;;;6.50;6.25;;;;;7.34;69.74;100798.25;4940673;28;45556;-50
2021/11/26 01:37:47;;;;;;;;;12.00;8.75;;;;;7.33;70.14;100791.31;4935269;28;45435;-54
2021/11/26 08:03:48;;;;;;;;;9.00;6.50;;;;;7.33;68.46;100220.97;4949643;28;76743;-52
2021/11/26 08:06:14;;;;;;;;;13.25;10.00;;;;;7.36;68.03;100212.97;4961325;28;45388;-50
2021/11/26 08:08:40;;;;;;;;;12.00;8.50;;;;;7.39;68.10;100201.47;4962009;28;45297;-53
2021/11/26 08:11:05;;;;;;;;;12.00;11.25;;;;;7.42;67.83;100190.78;4963163;28;45286;-51
2021/11/26 08:13:31;;;;;;;;;12.75;8.00;;;;;7.44;67.81;100186.34;4950344;28;46237;-51
2021/11/26 08:15:56;;;;;;;;;10.75;6.50;;;;;7.43;68.25;100188.13;4962906;28;45501;-52
2021/11/26 08:18:22;;;;;;;;;7.25;7.00;;;;;7.44;67.99;100174.09;4962800;28;45427;-48
2021/11/26 08:20:48;;;;;;;;;7.00;7.00;;;;;7.44;67.73;100176.69;4949342;28;45421;-58
2021/11/26 08:23:13;;;;;;;;;13.50;9.50;;;;;7.46;67.48;100172.22;4952841;28;45317;-50
2021/11/26 08:25:39;;;;;;;;;9.50;6.50;;;;;7.48;67.46;100178.22;4960385;28;45322;-50
2021/11/26 08:28:05;;;;;;;;;6.00;5.50;;;;;7.46;67.29;100174.84;4952032;28;45471;-51
2021/11/26 08:30:31;;;;;;;;;7.50;6.00;;;;;7.44;67.27;100175.84;4963157;28;45478;-50
2021/11/26 08:32:57;;;;;;;;;7.25;7.00;;;;;7.44;67.38;100175.84;4962322;28;45393;-54
2021/11/26 08:35:26;;;;;;;;;9.50;5.75;;;;;7.45;67.05;100173.16;4962651;28;45417;-52
2021/11/26 08:37:52;;;;;;;;;9.00;7.00;;;;;7.47;67.49;100168.66;4962681;28;45247;-54
2021/11/26 08:40:18;;;;;;;;;8.75;6.50;;;;;7.47;67.04;100166.03;4963121;28;45267;-53
2021/11/26 08:42:45;;;;;;;;;11.50;7.00;;;;;7.50;66.92;100167.63;4962819;28;45397;-52
2021/11/26 08:45:12;;;;;;;;;12.75;8.00;;;;;7.49;67.25;100152.84;4962842;28;45508;-52
2021/11/26 08:47:38;;;;;;;;;10.25;7.50;;;;;7.54;66.98;100150.81;4962439;28;45464;-50
2021/11/26 08:50:05;;;;;;;;;12.00;5.75;;;;;7.54;66.58;100151.66;4962977;28;45479;-49
2021/11/26 08:52:32;;;;;;;;;6.75;6.00;;;;;7.55;66.65;100160.38;4959096;28;45294;-53
2021/11/26 08:54:58;;;;;;;;;9.25;6.25;;;;;7.53;66.75;100152.59;4961841;28;45338;-50
2021/11/26 08:57:28;;;;;;;;;8.00;5.50;;;;;7.51;66.42;100151.84;4962437;28;45529;-52
2021/11/26 08:59:53;;;;;;;;;9.00;6.50;;;;;7.52;66.38;100139.59;4962758;28;45505;-53
2021/11/26 09:02:19;;;;;;;;;9.50;7.00;;;;;7.56;66.61;100141.94;4961871;28;45310;-49
2021/11/26 09:04:44;;;;;;;;;8.25;6.00;;;;;7.62;66.48;100143.38;4961789;28;45368;-52
2021/11/26 09:07:10;;;;;;;;;14.75;9.00;;;;;7.70;66.26;100143.78;4944769;28;45498;-48
2021/11/26 09:09:36;;;;;;;;;10.25;8.00;;;;;7.77;66.46;100132.00;4962494;28;45225;-53
2021/11/26 09:12:03;;;;;;;;;8.50;6.75;;;;;7.85;66.13;100128.94;4962163;28;45380;-54
2021/11/26 09:14:29;;;;;;;;;11.00;6.25;;;;;7.92;66.34;100116.34;4962418;28;45370;-54
2021/11/26 09:16:54;;;;;;;;;18.75;10.00;;;;;7.98;65.88;100106.34;4962410;28;45303;-52
2021/11/26 09:19:20;;;;;;;;;11.25;7.00;;;;;7.99;65.84;100096.69;4962320;28;45402;-51
2021/11/26 09:21:46;;;;;;;;;7.00;5.25;;;;;8.02;65.41;100089.47;4961983;28;45544;-54
2021/11/26 09:24:11;;;;;;;;;10.00;7.25;;;;;8.04;65.55;100086.75;4962117;28;45501;-54
2021/11/26 09:26:38;;;;;;;;;11.50;7.50;;;;;8.07;64.93;100076.09;4962441;28;45277;-53
2021/11/26 09:29:04;;;;;;;;;11.75;8.25;;;;;8.16;65.04;100066.84;4945275;28;45377;-53
2021/11/26 09:31:30;;;;;;;;;7.50;6.00;;;;;8.22;64.69;100072.56;4962039;28;45334;-53
2021/11/26 09:33:56;;;;;;;;;11.00;7.25;;;;;8.32;64.42;100065.81;4961916;28;45163;-50
2021/11/26 09:36:23;;;;;;;;;6.50;6.50;;;;;8.36;64.13;100061.25;4961980;28;45366;-54
2021/11/26 09:38:49;;;;;;;;;6.25;6.00;;;;;8.43;63.79;100045.97;4971297;28;45306;-53
2021/11/26 09:41:16;;;;;;;;;8.50;6.50;;;;;8.51;63.96;100041.09;4964937;28;45499;-52
2021/11/26 09:43:44;;;;;;;;;8.25;6.25;;;;;8.61;63.60;100032.56;4962266;28;45438;-54
2021/11/26 09:46:10;;;;;;;;;12.75;6.00;;;;;8.68;63.66;100033.84;4961938;28;45290;-55
2021/11/26 09:48:37;;;;;;;;;7.25;4.75;;;;;8.77;63.11;100018.44;4961887;28;45350;-54
2021/11/26 09:51:05;;;;;;;;;6.25;5.75;;;;;8.84;62.72;100028.47;4961621;28;45268;-54
2021/11/26 09:53:31;;;;;;;;;7.25;5.75;;;;;8.84;62.57;100006.63;4961389;28;45405;-52
2021/11/26 09:56:00;;;;;;;;;5.00;3.50;;;;;8.87;62.53;100009.91;4961682;28;45316;-51
2021/11/26 09:58:28;;;;;;;;;5.50;5.00;;;;;8.88;62.23;100001.09;4962375;28;45264;-53
2021/11/26 10:00:57;;;;;;;;;10.00;6.00;;;;;8.87;61.94;100003.81;4961600;28;45299;-51
2021/11/26 10:03:35;;;;;;;;;6.75;4.75;;;;;8.83;61.30;99997.91;4961544;28;45443;-52
2021/11/26 10:06:01;;;;;;;;;9.00;3.00;;;;;8.81;61.16;99993.69;4961548;28;45321;-51
2021/11/26 10:08:26;;;;;;;;;11.00;4.50;;;;;8.74;60.93;99987.16;4961979;28;45608;-51
2021/11/26 10:11:01;;;;;;;;;5.75;5.50;;;;;8.66;61.17;99985.84;4961253;28;45207;-51
2021/11/26 10:13:31;;;;;;;;;12.25;4.25;;;;;8.61;61.50;99973.94;4961719;28;45267;-48
2021/11/26 10:16:08;;;;;;;;;7.25;6.00;;;;;8.61;61.38;99966.06;4961514;28;45381;-49
2021/11/26 10:18:34;;;;;;;;;12.00;11.00;;;;;8.61;61.40;99963.44;4961520;28;45315;-48
2021/11/26 10:21:08;;;;;;;;;7.00;5.00;;;;;8.61;61.48;99951.19;4961287;28;46235;-50
2021/11/26 10:23:44;;;;;;;;;25.75;15.75;;;;;8.63;61.16;99941.41;4961654;28;45469;-53
2021/11/26 10:26:17;;;;;;;;;11.00;7.25;;;;;8.65;60.98;99929.03;4961419;28;45411;-52
2021/11/26 10:28:49;;;;;;;;;6.75;5.00;;;;;8.67;60.70;99916.63;4961589;28;45416;-49
2021/11/26 10:31:31;;;;;;;;;7.75;3.00;;;;;8.68;60.83;99907.81;4961406;28;46109;-54
2021/11/26 10:33:59;;;;;;;;;7.00;7.00;;;;;8.71;61.28;99911.22;4961216;28;45437;-53
2021/11/26 10:36:26;;;;;;;;;1.00;1.00;;;;;8.72;60.76;99908.47;4961695;28;45346;-50
2021/11/26 10:38:53;;;;;;;;;4.50;2.25;;;;;8.73;60.29;99906.69;4961532;28;45318;-52
2021/11/26 10:41:30;;;;;;;;;3.00;3.00;;;;;8.70;60.19;99899.03;4961163;28;45500;-51
2021/11/26 10:44:01;;;;;;;;;10.50;5.00;;;;;8.70;60.72;99894.63;4961355;28;45477;-50
2021/11/26 10:59:46;;;;;;;;;;;;;;;8.90;60.42;99859.16;4954624;28;45435;-52
2021/11/26 11:02:23;;;;;;;;;5.25;3.00;;;;;8.88;60.06;99843.50;4947031;28;46188;-52
2021/11/26 11:04:49;;;;;;;;;11.25;6.00;;;;;8.88;60.08;99833.00;4954617;28;45487;-52
2021/11/26 11:07:15;;;;;;;;;6.25;2.75;;;;;8.93;60.68;99832.72;4949896;28;45459;-50
2021/11/26 11:10:07;;;;;;;;;1.00;1.00;;;;;9.00;60.22;99814.72;4951804;28;45641;-52
2021/11/26 11:12:37;;;;;;;;;3.00;2.00;;;;;9.05;60.28;99810.00;4933913;28;45578;-52
2021/11/26 11:15:10;;;;;;;;;15.50;13.50;;;;;9.10;60.41;99800.03;4956014;28;45360;-51
2021/11/26 11:17:36;;;;;;;;;61.25;45.25;;;;;9.16;60.38;99789.97;4951079;28;45398;-53
2021/11/26 11:20:12;;;;;;;;;20.25;17.00;;;;;9.19;60.00;99771.34;4953728;28;45469;-51
2021/11/26 11:22:38;;;;;;;;;0.00;0.00;;;;;9.18;60.14;99760.94;4954195;28;45478;-51
2021/11/26 11:25:07;;;;;;;;;10.00;6.00;;;;;9.18;60.16;99753.91;4953525;28;45525;-53
2021/11/26 11:27:32;;;;;;;;;46.25;37.50;;;;;9.19;60.14;99749.50;4953419;28;45402;-49
2021/11/26 11:29:58;;;;;;;;;32.00;21.50;;;;;9.18;59.87;99746.03;4953934;28;45330;-51
2021/11/26 11:32:26;;;;;;;;;26.50;21.00;;;;;9.18;60.20;99737.31;4954710;28;46047;-54
2021/11/26 11:34:54;;;;;;;;;14.25;10.00;;;;;9.13;60.00;99721.84;4955402;28;45533;-53
2021/11/26 11:37:23;;;;;;;;;18.75;6.50;;;;;9.18;60.30;99711.88;4954173;28;45527;-53
2021/11/26 11:39:51;;;;;;;;;66.25;45.00;;;;;9.22;59.94;99709.84;4952908;28;46458;-54
2021/11/26 11:42:36;;;;;;;;;12.00;10.00;;;;;9.28;60.24;99712.06;4954098;28;45433;-53
2021/11/26 11:45:07;;;;;;;;;14.00;12.25;;;;;9.31;59.89;99721.50;4953041;28;45580;-53
2021/11/26 11:47:33;;;;;;;;;11.50;7.25;;;;;9.26;59.78;99703.44;4953177;28;45950;-52
2021/11/26 11:50:13;;;;;;;;;8.75;8.50;;;;;9.20;59.73;99693.34;4935710;28;45523;-54
2021/11/26 11:52:45;;;;;;;;;39.25;33.50;;;;;9.16;59.86;99682.25;4953831;28;45453;-52
2021/11/26 11:55:26;;;;;;;;;9.75;6.50;;;;;9.17;60.21;99673.41;4954823;28;45412;-53
2021/11/26 11:57:57;;;;;;;;;16.75;10.50;;;;;9.20;60.06;99673.19;4953274;28;45378;-51
2021/11/26 12:00:27;;;;;;;;;6.00;6.00;;;;;9.30;60.32;99664.63;4956323;28;45395;-49
2021/11/26 12:03:06;;;;;;;;;10.00;6.50;;;;;9.30;59.89;99647.06;4954238;28;45848;-50
2021/11/26 12:05:32;;;;;;;;;11.25;10.50;;;;;9.30;60.31;99640.97;4952765;28;45478;-54
2021/11/26 12:08:11;;;;;;;;;12.75;7.00;;;;;9.28;60.25;99621.88;4953401;28;45530;-51
2021/11/26 12:11:08;;;;;;;;;7.75;4.50;;;;;9.22;60.62;99616.09;4953339;28;45501;-49
2021/11/26 12:13:36;;;;;;;;;11.25;5.50;;;;;9.18;60.97;99603.31;4914525;28;46448;-49
2021/11/26 12:16:16;;;;;;;;;4.25;3.25;;;;;9.13;60.81;99590.47;4952019;28;45508;-52
2021/11/26 12:18:50;;;;;;;;;5.50;3.00;;;;;9.14;61.17;99602.66;4951533;28;45483;-48
2021/11/26 12:21:19;;;;;;;;;2.75;2.00;;;;;9.13;60.88;99602.78;4935766;28;45414;-50
2021/11/26 12:24:04;;;;;;;;;9.00;4.25;;;;;9.07;61.42;99583.03;4952035;28;45510;-50
2021/11/26 12:26:52;;;;;;;;;5.50;4.25;;;;;9.06;61.36;99576.09;4952482;28;45409;-49
2021/11/26 12:29:21;;;;;;;;;4.00;3.00;;;;;9.05;61.97;99568.34;4951359;28;45587;-51
2021/11/26 12:31:48;;;;;;;;;5.50;4.00;;;;;9.06;61.68;99565.59;4952045;28;45311;-53
2021/11/26 12:34:16;;;;;;;;;7.00;6.00;;;;;9.04;62.13;99553.53;4952822;28;46039;-51
2021/11/26 12:36:55;;;;;;;;;3.00;3.00;;;;;9.05;62.62;99535.03;4951653;28;45572;-54
2021/11/26 12:39:22;;;;;;;;;6.50;3.00;;;;;9.10;62.45;99535.53;4952025;28;45400;-52
2021/11/26 12:41:52;;;;;;;;;8.25;7.00;;;;;9.11;63.00;99528.50;4953651;28;45686;-50
2021/11/26 12:44:24;;;;;;;;;3.00;3.00;;;;;9.12;63.25;99524.91;4954676;28;46326;-52
2021/11/26 12:47:06;;;;;;;;;6.75;5.00;;;;;9.15;62.92;99508.91;4938250;28;45409;-53
2021/11/26 12:52:21;;;;;;;;;4.00;3.50;;;;;9.14;62.82;99488.88;4951930;28;45368;-52
2021/11/26 12:54:51;;;;;;;;;6.25;4.25;;;;;9.11;62.91;99486.47;4952963;28;46073;-53
2021/11/26 12:57:21;;;;;;;;;4.00;3.00;;;;;9.11;63.06;99463.66;4953105;28;45362;-53
2021/11/26 13:00:01;;;;;;;;;6.50;2.50;;;;;9.10;62.83;99454.09;4938059;28;45622;-51
2021/11/26 13:02:27;;;;;;;;;6.75;6.00;;;;;9.10;63.19;99443.59;4950890;28;45441;-49
2021/11/26 13:04:58;;;;;;;;;5.50;4.25;;;;;9.08;62.94;99434.13;4953266;28;45478;-52
2021/11/26 13:07:26;;;;;;;;;4.25;2.50;;;;;9.07;63.15;99427.22;4950828;28;45393;-52
2021/11/26 13:10:14;;;;;;;;;6.75;2.00;;;;;9.10;62.74;99424.38;4953103;28;45521;-51
2021/11/26 13:12:49;;;;;;;;;6.00;2.50;;;;;9.12;62.53;99406.72;4935380;28;45687;-52
2021/11/26 13:15:34;;;;;;;;;7.50;4.00;;;;;9.07;62.81;99408.81;4950898;28;45657;-53
2021/11/26 13:18:13;;;;;;;;;5.25;2.00;;;;;9.00;62.87;99411.06;4951315;28;45520;-53
2021/11/26 13:20:41;;;;;;;;;6.75;5.75;;;;;8.92;62.66;99398.50;4952887;28;45473;-53
2021/11/26 13:23:10;;;;;;;;;7.25;3.25;;;;;8.88;63.52;99391.81;4956468;28;45575;-51
2021/11/26 13:25:41;;;;;;;;;2.50;2.00;;;;;8.84;63.97;99379.84;4954021;28;45651;-50
2021/11/26 13:28:10;;;;;;;;;2.00;2.00;;;;;8.78;63.99;99374.22;4960116;28;45427;-50
2021/11/26 13:30:42;;;;;;;;;3.50;2.00;;;;;8.74;64.25;99373.59;4960250;28;45494;-50
2021/11/26 13:33:12;;;;;;;;;4.25;3.00;;;;;8.71;64.57;99365.13;4959816;28;45362;-52
2021/11/26 13:35:43;;;;;;;;;6.00;2.00;;;;;8.71;64.58;99346.75;4959828;28;46216;-54
2021/11/26 13:38:18;;;;;;;;;2.00;2.00;;;;;8.71;64.28;99341.50;4960800;28;45443;-51
2021/11/26 13:40:46;;;;;;;;;3.00;2.25;;;;;8.73;64.95;99332.56;4961150;28;45172;-53
2021/11/26 13:43:30;;;;;;;;;7.50;4.25;;;;;8.79;64.93;99333.91;4961519;28;45528;-50
2021/11/26 13:45:59;;;;;;;;;5.75;3.50;;;;;8.81;64.55;99319.69;4961146;28;45418;-54
2021/11/26 13:48:26;;;;;;;;;7.25;6.00;;;;;8.82;64.75;99315.28;4952628;28;45478;-54
2021/11/26 13:50:53;;;;;;;;;3.00;2.00;;;;;8.82;64.50;99313.47;4961258;28;45160;-54
2021/11/26 13:53:18;;;;;;;;;3.00;3.00;;;;;8.84;64.66;99302.88;4960794;28;45393;-54
2021/11/26 13:55:44;;;;;;;;;4.50;2.00;;;;;8.84;64.25;99294.97;4959886;28;46118;-54
2021/11/26 13:58:14;;;;;;;;;4.75;2.25;;;;;8.85;64.42;99286.19;4955848;28;45351;-55
2021/11/26 14:00:57;;;;;;;;;5.00;2.50;;;;;8.87;64.68;99279.84;4952171;28;45567;-53
2021/11/26 14:03:33;;;;;;;;;3.00;2.00;;;;;8.93;64.49;99270.69;4954361;28;45603;-53
2021/11/26 14:06:17;;;;;;;;;3.75;3.00;;;;;8.97;64.17;99255.50;4951070;28;46482;-53
2021/11/26 14:08:49;;;;;;;;;2.25;2.00;;;;;8.98;64.07;99255.41;4957822;28;45437;-52
2021/11/26 14:11:26;;;;;;;;;2.75;2.75;;;;;8.98;64.19;99244.88;4955677;28;45627;-50
2021/11/26 14:13:53;;;;;;;;;6.00;2.00;;;;;9.02;64.82;99235.00;4933142;28;45504;-49
2021/11/26 14:16:20;;;;;;;;;5.00;1.50;;;;;9.02;64.40;99230.59;4953265;28;46605;-52
2021/11/26 14:19:04;;;;;;;;;2.00;2.00;;;;;8.99;64.73;99230.78;4949838;28;45435;-50
2021/11/26 14:21:32;;;;;;;;;3.00;3.00;;;;;8.99;64.84;99225.53;4954923;28;45626;-53
2021/11/26 14:23:58;;;;;;;;;4.00;2.00;;;;;8.99;64.70;99212.41;4960987;28;45493;-49
2021/11/26 14:26:25;;;;;;;;;8.50;3.00;;;;;8.95;64.38;99211.00;4960890;28;45549;-52
2021/11/26 14:29:13;;;;;;;;;4.50;2.50;;;;;8.95;65.02;99196.06;4960588;28;45458;-51
2021/11/26 14:31:41;;;;;;;;;8.00;6.00;;;;;8.95;65.00;99190.81;4960957;28;45583;-52
2021/11/26 14:34:12;;;;;;;;;3.50;3.00;;;;;8.99;64.90;99198.44;4960676;28;45393;-52
2021/11/26 14:36:41;;;;;;;;;9.25;8.50;;;;;8.98;64.71;99184.47;4960782;28;45368;-51
2021/11/26 14:39:07;;;;;;;;;10.00;5.50;;;;;8.95;64.85;99188.19;4961130;28;45407;-50
2021/11/26 14:41:36;;;;;;;;;4.50;2.00;;;;;8.93;64.97;99174.34;4960552;28;45399;-50
2021/11/26 14:44:13;;;;;;;;;2.00;2.00;;;;;8.94;65.26;99168.13;4961142;28;45442;-53
2021/11/26 14:46:52;;;;;;;;;4.00;4.00;;;;;8.94;65.32;99160.25;4960920;28;46190;-52
2021/11/26 14:49:21;;;;;;;;;4.00;2.00;;;;;8.97;64.71;99151.31;4960373;28;45188;-50
2021/11/26 14:51:46;;;;;;;;;5.75;3.00;;;;;8.95;65.14;99147.97;4951320;28;45502;-52
2021/11/26 14:54:17;;;;;;;;;2.00;2.00;;;;;8.90;65.31;99140.44;4953535;28;45488;-51
2021/11/26 14:56:43;;;;;;;;;3.00;3.00;;;;;8.87;65.59;99138.06;4960487;28;45651;-52
2021/11/26 14:59:11;;;;;;;;;3.00;3.00;;;;;8.84;65.97;99142.69;4961667;28;45664;-52
2021/11/26 15:01:41;;;;;;;;;2.25;1.75;;;;;8.84;65.58;99134.81;4961933;28;45592;-53
2021/11/26 15:04:07;;;;;;;;;3.00;0.00;;;;;8.81;65.75;99124.56;4962908;28;45525;-52
2021/11/26 15:06:34;;;;;;;;;3.50;2.50;;;;;8.80;66.55;99122.91;4964222;28;46544;-55
2021/11/26 15:09:00;;;;;;;;;6.00;2.00;;;;;8.76;66.75;99119.66;4964519;28;45247;-51
2021/11/26 15:11:30;;;;;;;;;2.50;2.00;;;;;8.77;67.26;99116.09;4963889;28;45453;-53
2021/11/26 15:13:57;;;;;;;;;3.00;2.75;;;;;8.76;67.34;99116.19;4964460;28;45233;-54
2021/11/26 15:16:22;;;;;;;;;5.50;3.00;;;;;8.74;67.92;99118.13;4963791;28;45486;-51
2021/11/26 15:18:48;;;;;;;;;3.00;2.00;;;;;8.72;67.76;99114.78;4964089;28;45179;-53
2021/11/26 15:21:14;;;;;;;;;8.25;1.75;;;;;8.67;68.01;99108.09;4962742;28;45498;-53
2021/11/26 15:23:40;;;;;;;;;5.50;3.50;;;;;8.63;67.71;99106.66;4964403;28;45401;-55
2021/11/26 15:26:06;;;;;;;;;4.00;3.00;;;;;8.60;68.33;99112.13;4963951;28;45933;-54
2021/11/26 15:28:32;;;;;;;;;2.75;2.00;;;;;8.57;68.61;99109.75;4964290;28;45266;-53
2021/11/26 15:31:00;;;;;;;;;6.75;2.25;;;;;8.55;68.58;99100.34;4962779;28;45378;-54
2021/11/26 15:33:25;;;;;;;;;3.00;2.75;;;;;8.55;69.19;99101.19;4964080;28;45404;-53
2021/11/26 15:35:56;;;;;;;;;2.25;2.25;;;;;8.54;69.58;99103.94;4963958;28;45331;-52
2021/11/26 15:38:31;;;;;;;;;3.00;2.25;;;;;8.52;69.82;99092.69;4946816;28;45357;-54
2021/11/26 15:40:58;;;;;;;;;3.25;3.00;;;;;8.49;69.83;99075.41;4963971;28;45453;-53
2021/11/26 15:43:24;;;;;;;;;7.50;4.00;;;;;8.46;70.40;99070.41;4964126;28;45420;-55
2021/11/26 15:45:49;;;;;;;;;5.50;5.25;;;;;8.44;70.74;99061.78;4964160;28;45889;-54
2021/11/26 15:48:15;;;;;;;;;6.00;2.25;;;;;8.42;70.74;99060.25;4963439;28;45327;-51
2021/11/26 15:50:41;;;;;;;;;3.50;3.00;;;;;8.42;71.05;99055.00;4964417;28;45251;-53
2021/11/26 15:53:07;;;;;;;;;3.75;3.75;;;;;8.42;71.41;99029.59;4962933;28;45480;-53
2021/11/26 15:55:32;;;;;;;;;4.50;2.50;;;;;8.45;71.18;99037.22;4959785;28;45449;-49
2021/11/26 15:57:58;;;;;;;;;6.50;5.50;;;;;8.46;70.93;99032.84;4956109;28;45967;-51
2021/11/26 16:00:24;;;;;;;;;5.00;5.00;;;;;8.45;71.11;99031.97;4951346;28;45594;-53
2021/11/26 16:02:49;;;;;;;;;3.50;2.25;;;;;8.43;70.69;99025.19;4956860;28;45708;-53
2021/11/26 16:05:15;;;;;;;;;6.25;2.00;;;;;8.42;70.95;99015.66;4959682;28;45484;-53
2021/11/26 16:07:42;;;;;;;;;2.00;2.00;;;;;8.41;71.22;99006.94;4958404;28;45899;-53
2021/11/26 16:10:09;;;;;;;;;6.25;4.50;;;;;8.41;70.92;98995.59;4943067;28;45399;-54
2021/11/26 16:12:35;;;;;;;;;6.00;3.00;;;;;8.40;71.29;99002.66;4957561;28;45417;-53
2021/11/26 16:15:06;;;;;;;;;4.50;3.75;;;;;8.40;70.77;98986.91;4959359;28;45315;-52
2021/11/26 16:17:32;;;;;;;;;6.25;3.50;;;;;8.41;70.83;98982.50;4948579;28;45448;-50
2021/11/26 16:19:58;;;;;;;;;3.25;3.00;;;;;8.42;71.15;98973.66;4958358;28;45243;-52
2021/11/26 16:22:25;;;;;;;;;3.00;2.75;;;;;8.44;71.21;98956.84;4958847;28;45335;-53
2021/11/26 16:24:52;;;;;;;;;6.00;3.00;;;;;8.45;71.08;98960.28;4955210;28;46138;-50
2021/11/26 16:27:18;;;;;;;;;5.50;3.00;;;;;8.47;70.92;98950.53;4956799;28;45404;-50
2021/11/26 16:29:44;;;;;;;;;6.75;3.00;;;;;8.48;71.26;98953.03;4956434;28;45521;-50
2021/11/26 16:34:38;;;;;;;;;4.25;3.00;;;;;8.52;71.15;98945.72;4962640;28;45431;-50
2021/11/26 16:37:15;;;;;;;;;4.00;2.25;;;;;8.53;70.90;98950.03;4962832;28;45368;-54
2021/11/26 16:39:41;;;;;;;;;1.50;1.50;;;;;8.51;70.87;98937.03;4963045;28;45270;-51
2021/11/26 16:42:07;;;;;;;;;5.00;3.00;;;;;8.52;71.06;98930.81;4962644;28;45240;-53
2021/11/26 16:44:34;;;;;;;;;3.50;2.50;;;;;8.51;70.91;98925.69;4962907;28;45512;-52
2021/11/26 16:47:00;;;;;;;;;3.00;3.00;;;;;8.49;70.97;98917.97;4959494;28;45407;-52
2021/11/26 16:49:26;;;;;;;;;2.50;2.50;;;;;8.47;70.96;98917.25;4962643;28;45318;-53
2021/11/26 16:51:56;;;;;;;;;0.25;0.00;;;;;8.48;70.87;98918.91;4959603;28;45340;-52
2021/11/26 16:54:24;;;;;;;;;5.75;3.00;;;;;8.46;70.82;98915.59;4957709;28;45380;-53
2021/11/26 16:56:51;;;;;;;;;3.00;3.00;;;;;8.47;70.81;98908.53;4958303;28;45306;-53
2021/11/26 16:59:17;;;;;;;;;4.50;2.00;;;;;8.47;70.50;98895.44;4956813;28;45489;-54
2021/11/26 17:01:44;;;;;;;;;2.75;2.00;;;;;8.47;70.63;98883.13;4953978;28;45508;-54
2021/11/26 17:04:11;;;;;;;;;3.75;2.00;;;;;8.49;70.62;98891.72;4953300;28;46108;-50
2021/11/26 17:06:38;;;;;;;;;3.75;2.00;;;;;8.48;71.03;98900.56;4952826;28;45301;-50
2021/11/26 17:09:06;;;;;;;;;4.00;3.00;;;;;8.47;70.92;98885.75;4953405;28;45200;-52
2021/11/26 17:11:33;;;;;;;;;3.00;3.00;;;;;8.50;70.87;98893.38;4952174;28;45576;-50
2021/11/26 17:13:58;;;;;;;;;2.50;2.00;;;;;8.51;70.69;98891.59;4950760;28;46266;-51
2021/11/26 17:16:24;;;;;;;;;4.00;4.00;;;;;8.52;70.23;98890.63;4952338;28;45521;-51
2021/11/26 17:18:49;;;;;;;;;3.75;2.00;;;;;8.53;71.03;98889.66;4954240;28;45475;-53
2021/11/26 17:21:17;;;;;;;;;7.00;3.00;;;;;8.53;70.47;98882.66;4952941;28;45410;-51
2021/11/26 17:23:42;;;;;;;;;2.50;2.00;;;;;8.53;70.89;98864.28;4952567;28;45395;-53
2021/11/26 17:26:08;;;;;;;;;6.00;3.00;;;;;8.54;70.89;98875.63;4952838;28;45151;-51
2021/11/26 17:28:34;;;;;;;;;4.00;3.75;;;;;8.54;70.91;98873.81;4952508;28;45357;-53
2021/11/26 17:31:01;;;;;;;;;7.25;4.25;;;;;8.54;71.03;98865.94;4957187;28;45556;-51
2021/11/26 17:33:27;;;;;;;;;2.00;2.00;;;;;8.53;71.10;98864.28;4957127;28;45478;-51
2021/11/26 17:35:53;;;;;;;;;3.50;3.00;;;;;8.52;70.82;98865.22;4960505;28;45492;-53
2021/11/26 17:38:19;;;;;;;;;7.25;3.00;;;;;8.55;70.96;98866.78;4959511;28;45481;-50
2021/11/26 17:40:44;;;;;;;;;3.00;2.00;;;;;8.59;71.19;98857.69;4956650;28;45503;-51
2021/11/26 17:43:12;;;;;;;;;4.00;3.25;;;;;8.58;70.83;98853.41;4953047;28;45454;-50
2021/11/26 17:45:37;;;;;;;;;3.00;3.00;;;;;8.59;71.12;98847.19;4951942;28;45484;-48
2021/11/26 17:48:03;;;;;;;;;3.00;3.00;;;;;8.56;70.84;98839.59;4958029;28;45485;-53
2021/11/26 17:50:29;;;;;;;;;3.00;3.00;;;;;8.56;71.03;98832.53;4958847;28;45346;-51
2021/11/26 17:52:55;;;;;;;;;9.00;3.25;;;;;8.57;71.37;98836.81;4955815;28;45496;-51
2021/11/26 17:55:26;;;;;;;;;2.50;2.50;;;;;8.60;70.83;98838.34;4957374;28;45517;-49
2021/11/26 17:57:54;;;;;;;;;9.25;3.00;;;;;8.60;71.13;98827.84;4957710;28;45255;-51
2021/11/26 18:00:20;;;;;;;;;4.00;3.00;;;;;8.57;71.25;98820.25;4957982;28;45168;-53
2021/11/26 18:02:46;;;;;;;;;3.00;3.00;;;;;8.57;71.29;98828.94;4955107;28;45434;-52
2021/11/26 18:05:14;;;;;;;;;3.00;3.00;;;;;8.57;71.18;98823.69;4956805;28;45299;-52
2021/11/26 18:07:42;;;;;;;;;6.00;5.50;;;;;8.59;71.07;98813.06;4957299;28;45430;-52
2021/11/26 18:10:09;;;;;;;;;0.75;0.75;;;;;8.59;71.18;98800.78;4958799;28;45425;-53
2021/11/26 18:12:46;;;;;;;;;2.00;2.00;;;;;8.56;71.15;98789.72;4956196;28;45425;-54
2021/11/26 18:15:12;;;;;;;;;2.75;2.75;;;;;8.57;71.47;98796.63;4954640;28;45494;-52
2021/11/26 18:17:37;;;;;;;;;5.00;2.75;;;;;8.54;71.49;98794.28;4956992;28;45318;-55
2021/11/26 18:20:09;;;;;;;;;5.25;5.00;;;;;8.56;71.72;98797.59;4957909;28;45564;-54
2021/11/26 18:22:35;;;;;;;;;4.25;3.00;;;;;8.53;71.34;98788.19;4961101;28;45389;-50
2021/11/26 18:25:03;;;;;;;;;5.75;3.00;;;;;8.51;71.46;98786.63;4961329;28;45399;-53
2021/11/26 18:27:31;;;;;;;;;5.00;3.00;;;;;8.52;71.24;98790.91;4945758;28;45444;-54
2021/11/26 18:29:56;;;;;;;;;6.00;3.00;;;;;8.50;71.19;98782.34;4964031;28;45342;-54